Time;durP1;ratioP1;P1;durP2;ratioP2;P2;SDS_P1;SDS_P2;PMS_P1;PMS_P2;Temp;Humidity;BMP_temperature;BMP_pressure;BME280_temperature;BME280_humidity;BME280_pressure;Samples;Min_cycle;Max_cycle;Signal;HPM_P1;HPM_P2
2023/03/15 00:01:18;;;;;;;3.87;1.50;;;2.60;99.90;;;;;;4821367;29;20497;-63
2023/03/15 00:03:46;;;;;;;5.30;1.47;;;2.50;99.90;;;;;;4817786;29;20966;-63
2023/03/15 00:06:15;;;;;;;2.77;0.87;;;2.40;99.90;;;;;;4816775;29;21050;-63
2023/03/15 00:08:46;;;;;;;3.87;1.13;;;2.40;99.90;;;;;;4808263;29;20506;-63
2023/03/15 00:11:14;;;;;;;7.10;1.53;;;2.40;99.90;;;;;;4807959;29;20570;-63
2023/03/15 00:13:44;;;;;;;4.13;1.20;;;2.50;99.90;;;;;;4808021;29;20483;-62
2023/03/15 00:16:16;;;;;;;3.60;1.00;;;2.50;99.90;;;;;;4827001;29;20513;-63
2023/03/15 00:18:45;;;;;;;2.13;1.00;;;2.40;99.90;;;;;;4830999;29;20484;-63
2023/03/15 00:21:14;;;;;;;3.83;1.27;;;2.40;99.90;;;;;;4844318;29;20876;-62
2023/03/15 00:23:42;;;;;;;3.20;0.87;;;2.40;99.90;;;;;;4844556;29;20901;-62
2023/03/15 00:26:10;;;;;;;4.40;1.23;;;2.40;99.90;;;;;;4844458;29;20473;-62
2023/03/15 00:28:39;;;;;;;3.73;1.10;;;2.40;99.90;;;;;;4844178;29;20495;-63
2023/03/15 00:31:14;;;;;;;5.13;1.13;;;2.40;99.90;;;;;;4843702;29;20481;-63
2023/03/15 00:33:42;;;;;;;9.23;1.30;;;2.40;99.90;;;;;;4843962;29;20473;-63
2023/03/15 00:36:11;;;;;;;7.07;1.37;;;2.30;99.90;;;;;;4843984;29;20475;-63
2023/03/15 00:38:42;;;;;;;3.30;1.47;;;2.30;99.90;;;;;;4857869;29;20466;-63
2023/03/15 00:41:13;;;;;;;2.17;1.17;;;2.30;99.90;;;;;;4842678;29;20485;-63
2023/03/15 00:43:41;;;;;;;5.87;1.27;;;2.30;99.90;;;;;;4857902;29;20479;-62
2023/03/15 00:46:11;;;;;;;4.30;1.30;;;2.30;99.90;;;;;;4828359;29;20552;-62
2023/03/15 00:48:40;;;;;;;5.67;1.60;;;2.40;99.90;;;;;;4828422;29;20549;-63
2023/03/15 00:51:10;;;;;;;3.83;1.20;;;2.30;99.90;;;;;;4843509;29;20470;-63
2023/03/15 00:53:40;;;;;;;4.73;1.30;;;2.30;99.90;;;;;;4843592;29;20505;-63
2023/03/15 00:56:10;;;;;;;3.20;1.37;;;2.30;99.90;;;;;;4843724;29;20830;-62
2023/03/15 00:58:39;;;;;;;3.77;1.30;;;2.30;99.90;;;;;;4842941;29;20847;-63
2023/03/15 01:01:08;;;;;;;2.83;0.90;;;2.30;99.90;;;;;;4840086;29;20498;-63
2023/03/15 01:03:41;;;;;;;5.10;1.13;;;2.30;99.90;;;;;;4825358;29;20485;-63
2023/03/15 01:06:11;;;;;;;2.73;1.10;;;2.40;99.90;;;;;;4825198;29;20990;-63
2023/03/15 01:08:40;;;;;;;5.77;1.30;;;2.40;99.90;;;;;;4823704;29;20500;-63
2023/03/15 01:11:10;;;;;;;4.13;1.73;;;2.40;99.90;;;;;;4823873;29;20867;-63
2023/03/15 01:13:38;;;;;;;7.00;1.33;;;2.40;99.90;;;;;;4838992;29;20493;-63
2023/03/15 01:16:08;;;;;;;3.23;1.50;;;2.50;99.90;;;;;;4828609;29;21020;-63
2023/03/15 01:18:37;;;;;;;3.30;1.90;;;2.50;99.90;;;;;;4829249;29;20557;-63
2023/03/15 01:21:08;;;;;;;4.53;1.30;;;2.50;99.90;;;;;;4828678;29;20469;-63
2023/03/15 01:23:36;;;;;;;1.70;1.10;;;2.40;99.90;;;;;;4842995;29;20472;-63
2023/03/15 01:26:07;;;;;;;4.20;1.40;;;2.40;99.90;;;;;;4841795;29;20476;-62
2023/03/15 01:28:35;;;;;;;3.20;1.30;;;2.40;99.90;;;;;;4841051;29;20472;-63
2023/03/15 01:31:03;;;;;;;2.40;1.10;;;2.40;99.90;;;;;;4841547;29;20532;-63
2023/03/15 01:33:32;;;;;;;4.30;1.20;;;2.50;99.90;;;;;;4842799;29;21053;-63
2023/03/15 01:36:01;;;;;;;3.93;1.50;;;2.40;99.90;;;;;;4838727;29;20511;-63
2023/03/15 01:38:32;;;;;;;2.83;1.13;;;2.40;99.90;;;;;;4823348;29;20566;-63
2023/03/15 01:41:00;;;;;;;4.07;1.33;;;2.40;99.90;;;;;;4823708;29;20486;-63
2023/03/15 01:43:31;;;;;;;2.93;1.00;;;2.40;99.90;;;;;;4823320;29;20828;-63
2023/03/15 01:46:06;;;;;;;7.23;1.23;;;2.30;99.90;;;;;;4838410;29;20474;-63
2023/03/15 01:48:43;;;;;;;3.00;0.93;;;2.30;99.90;;;;;;4826770;29;21033;-63
2023/03/15 01:51:21;;;;;;;3.93;1.33;;;2.30;99.90;;;;;;4841328;29;20471;-63
2023/03/15 01:53:55;;;;;;;1.10;0.90;;;2.40;99.90;;;;;;4841425;29;20483;-63
2023/03/15 01:56:25;;;;;;;1.23;0.90;;;2.30;99.90;;;;;;4842601;29;20879;-63
2023/03/15 01:58:57;;;;;;;3.27;0.97;;;2.40;99.90;;;;;;4841589;29;20473;-63
2023/03/15 02:01:25;;;;;;;3.77;1.07;;;2.30;99.90;;;;;;4845326;29;20513;-63
2023/03/15 02:04:00;;;;;;;2.17;1.10;;;2.40;99.90;;;;;;4853966;29;20507;-64
2023/03/15 02:06:33;;;;;;;4.37;1.53;;;2.40;99.90;;;;;;4857448;29;20986;-64
2023/03/15 02:09:06;;;;;;;3.80;1.53;;;2.40;99.90;;;;;;4841350;29;20485;-63
2023/03/15 02:11:38;;;;;;;2.10;1.27;;;2.40;99.90;;;;;;4856478;29;21056;-63
2023/03/15 02:14:08;;;;;;;2.90;1.00;;;2.40;99.90;;;;;;4856824;29;20934;-63
2023/03/15 02:16:39;;;;;;;2.33;1.10;;;2.40;99.90;;;;;;4819664;29;20491;-63
2023/03/15 02:19:20;;;;;;;2.13;1.20;;;2.40;99.90;;;;;;4831503;29;20483;-63
2023/03/15 02:21:59;;;;;;;1.97;0.97;;;2.40;99.90;;;;;;4841977;29;20473;-63
2023/03/15 02:24:37;;;;;;;2.30;1.10;;;2.40;99.90;;;;;;4842028;29;20537;-63
2023/03/15 02:27:06;;;;;;;2.63;1.07;;;2.40;99.90;;;;;;4842157;29;20493;-63
2023/03/15 02:29:36;;;;;;;4.20;1.37;;;2.40;99.90;;;;;;4840733;29;20519;-63
2023/03/15 02:32:04;;;;;;;3.00;1.20;;;2.40;99.90;;;;;;4841766;29;20484;-63
2023/03/15 02:34:33;;;;;;;3.70;1.30;;;2.40;99.90;;;;;;4842032;29;20888;-63
2023/03/15 02:37:03;;;;;;;2.70;1.27;;;2.40;99.90;;;;;;4856176;29;20480;-63
2023/03/15 02:39:31;;;;;;;3.83;1.40;;;2.30;99.90;;;;;;4841901;29;20469;-63
2023/03/15 02:42:00;;;;;;;2.90;1.60;;;2.30;99.90;;;;;;4842071;29;20470;-63
2023/03/15 02:44:31;;;;;;;3.67;1.43;;;2.40;99.90;;;;;;4839123;29;20479;-63
2023/03/15 02:47:05;;;;;;;2.33;1.50;;;2.50;99.90;;;;;;4823659;29;20462;-63
2023/03/15 02:49:37;;;;;;;2.80;1.60;;;2.50;99.90;;;;;;4833577;29;20540;-63
2023/03/15 02:52:07;;;;;;;3.60;1.73;;;2.50;99.90;;;;;;4856221;29;21037;-63
2023/03/15 02:54:35;;;;;;;1.97;1.40;;;2.50;99.90;;;;;;4842003;29;20472;-63
2023/03/15 02:57:04;;;;;;;3.43;1.40;;;2.40;99.90;;;;;;4840695;29;20474;-63
2023/03/15 02:59:32;;;;;;;2.17;1.60;;;2.40;99.90;;;;;;4856270;29;20488;-63
2023/03/15 03:02:02;;;;;;;4.13;1.90;;;2.40;99.90;;;;;;4844148;29;20486;-63
2023/03/15 03:04:30;;;;;;;5.80;2.33;;;2.30;99.90;;;;;;4844278;29;20492;-63
2023/03/15 03:06:58;;;;;;;4.50;2.03;;;2.40;99.90;;;;;;4841440;29;20530;-63
2023/03/15 03:09:34;;;;;;;5.40;1.97;;;2.30;99.90;;;;;;4859564;29;20491;-63
2023/03/15 03:12:03;;;;;;;6.63;1.80;;;2.40;99.90;;;;;;4845488;29;20468;-63
2023/03/15 03:14:33;;;;;;;4.20;2.20;;;2.30;99.90;;;;;;4859397;29;20485;-63
2023/03/15 03:17:03;;;;;;;4.37;1.93;;;2.30;99.90;;;;;;4825794;29;20903;-63
2023/03/15 03:19:31;;;;;;;6.40;2.23;;;2.30;99.90;;;;;;4852213;29;20473;-63
2023/03/15 03:21:59;;;;;;;4.03;2.00;;;2.30;99.90;;;;;;4844149;29;20583;-63
2023/03/15 03:24:28;;;;;;;7.33;2.23;;;2.30;99.90;;;;;;4843842;29;20512;-63
2023/03/15 03:26:56;;;;;;;6.00;2.30;;;2.30;99.90;;;;;;4825127;29;20474;-63
2023/03/15 03:29:28;;;;;;;6.27;2.03;;;2.30;99.90;;;;;;4834963;29;21052;-63
2023/03/15 03:31:59;;;;;;;2.70;2.07;;;2.30;99.90;;;;;;4843661;29;20813;-63
2023/03/15 03:34:28;;;;;;;7.03;2.40;;;2.30;99.90;;;;;;4845188;29;20482;-63
2023/03/15 03:36:57;;;;;;;4.43;2.17;;;2.30;99.90;;;;;;4836647;29;20573;-63
2023/03/15 03:39:41;;;;;;;6.83;2.43;;;2.30;99.90;;;;;;4825173;29;21040;-63
2023/03/15 03:42:09;;;;;;;5.30;2.43;;;2.30;99.90;;;;;;4826555;29;20497;-63
2023/03/15 03:44:37;;;;;;;7.33;2.87;;;2.40;99.90;;;;;;4826353;29;20539;-63
2023/03/15 03:47:06;;;;;;;6.80;2.63;;;2.40;99.90;;;;;;4840473;29;20506;-63
2023/03/15 03:49:35;;;;;;;7.23;3.00;;;2.50;99.90;;;;;;4837824;29;21006;-63
2023/03/15 03:52:04;;;;;;;4.63;2.43;;;2.40;99.90;;;;;;4844723;29;20492;-63
2023/03/15 03:54:32;;;;;;;3.83;2.43;;;2.30;99.90;;;;;;4858730;29;20888;-64
2023/03/15 03:57:00;;;;;;;4.53;2.43;;;2.40;99.90;;;;;;4843493;29;20478;-63
2023/03/15 03:59:33;;;;;;;5.20;2.67;;;2.40;99.90;;;;;;4843308;29;20473;-63
2023/03/15 04:02:05;;;;;;;4.00;2.50;;;2.50;99.90;;;;;;4842980;29;20499;-63
2023/03/15 04:04:39;;;;;;;5.23;2.60;;;2.40;99.90;;;;;;4843163;29;20485;-63
2023/03/15 04:07:12;;;;;;;6.37;3.03;;;2.30;99.90;;;;;;4843336;29;20925;-63
2023/03/15 04:09:44;;;;;;;4.03;2.70;;;2.40;99.90;;;;;;4843142;29;20979;-62
2023/03/15 04:12:12;;;;;;;6.10;3.23;;;2.30;99.90;;;;;;4842552;29;20551;-63
2023/03/15 04:14:43;;;;;;;6.23;3.00;;;2.30;99.90;;;;;;4842214;29;20516;-63
2023/03/15 04:17:12;;;;;;;6.87;2.73;;;2.30;99.90;;;;;;4839952;29;20491;-63
2023/03/15 04:19:45;;;;;;;5.97;3.10;;;2.30;99.90;;;;;;4838322;29;20498;-63
2023/03/15 04:22:16;;;;;;;6.57;2.83;;;2.50;99.90;;;;;;4842902;29;20479;-63
2023/03/15 04:25:06;;;;;;;4.57;2.73;;;2.40;99.90;;;;;;4844187;29;20491;-63
2023/03/15 04:27:57;;;;;;;5.80;2.17;;;2.40;99.90;;;;;;4844183;29;20475;-63
2023/03/15 04:30:45;;;;;;;5.50;3.07;;;2.40;99.90;;;;;;4833763;29;20505;-62
2023/03/15 04:33:31;;;;;;;6.03;3.47;;;2.40;99.90;;;;;;4818452;29;21030;-63
2023/03/15 04:36:07;;;;;;;8.43;3.53;;;2.40;99.90;;;;;;4823205;29;20567;-63
2023/03/15 04:39:04;;;;;;;5.03;3.10;;;2.30;99.90;;;;;;4826369;29;20815;-63
2023/03/15 04:41:50;;;;;;;7.47;3.30;;;2.30;99.90;;;;;;4836428;29;20470;-63
2023/03/15 04:44:31;;;;;;;7.13;3.87;;;2.10;99.90;;;;;;4841180;29;20493;-63
2023/03/15 04:47:16;;;;;;;7.67;3.57;;;2.10;99.90;;;;;;4806236;29;20545;-63
2023/03/15 04:49:53;;;;;;;6.93;3.73;;;2.20;99.90;;;;;;4837865;29;21016;-63
2023/03/15 04:52:47;;;;;;;8.03;3.90;;;2.10;99.90;;;;;;4843791;29;20529;-63
2023/03/15 04:55:45;;;;;;;7.70;4.13;;;2.00;99.90;;;;;;4805843;29;20591;-63
2023/03/15 04:58:15;;;;;;;10.20;4.37;;;2.00;99.90;;;;;;4807532;29;20470;-63
2023/03/15 05:00:53;;;;;;;9.07;5.13;;;2.00;99.90;;;;;;4805514;29;21000;-63
2023/03/15 05:03:47;;;;;;;13.10;5.07;;;1.90;99.90;;;;;;4823682;29;20477;-63
2023/03/15 05:06:16;;;;;;;7.60;4.27;;;2.00;99.90;;;;;;4825344;29;20837;-63
2023/03/15 05:09:03;;;;;;;6.87;4.33;;;1.90;99.90;;;;;;4825398;29;20459;-63
2023/03/15 05:11:49;;;;;;;6.97;3.80;;;2.00;99.90;;;;;;4838976;29;21085;-63
2023/03/15 05:14:41;;;;;;;7.03;3.80;;;1.90;99.90;;;;;;4829702;29;20481;-63
2023/03/15 05:17:29;;;;;;;9.43;4.33;;;1.90;99.90;;;;;;4843015;29;20538;-63
2023/03/15 05:20:24;;;;;;;10.00;4.73;;;2.00;99.90;;;;;;4833581;29;20485;-63
2023/03/15 05:23:12;;;;;;;7.17;4.90;;;1.80;99.90;;;;;;4824424;29;20530;-62
2023/03/15 05:25:53;;;;;;;7.73;4.63;;;1.80;99.90;;;;;;4824806;29;20473;-63
2023/03/15 05:28:40;;;;;;;8.00;4.23;;;1.80;99.90;;;;;;4825016;29;20457;-62
2023/03/15 05:31:28;;;;;;;7.90;4.50;;;1.90;99.90;;;;;;4823029;29;20497;-63
2023/03/15 05:33:56;;;;;;;10.60;5.60;;;1.90;99.90;;;;;;4824785;29;20833;-63
2023/03/15 05:36:50;;;;;;;12.23;5.10;;;1.70;99.90;;;;;;4826537;29;21006;-63
2023/03/15 05:39:57;;;;;;;10.37;5.07;;;1.90;99.90;;;;;;4859259;29;20460;-63
2023/03/15 05:42:45;;;;;;;9.90;5.73;;;1.90;99.90;;;;;;4859348;29;20493;-63
2023/03/15 05:45:30;;;;;;;10.03;5.30;;;2.30;99.90;;;;;;4828039;29;20486;-63
2023/03/15 05:48:06;;;;;;;11.07;5.43;;;2.00;99.90;;;;;;4810842;29;20565;-63
2023/03/15 05:50:56;;;;;;;11.10;4.97;;;2.10;99.90;;;;;;4840466;29;20513;-63
2023/03/15 05:53:41;;;;;;;10.73;4.87;;;2.10;99.90;;;;;;4838403;29;20557;-63
2023/03/15 05:56:39;;;;;;;10.87;5.87;;;2.20;99.90;;;;;;4842477;29;20552;-63
2023/03/15 05:59:33;;;;;;;9.07;5.83;;;2.90;99.90;;;;;;4841142;29;20485;-63
2023/03/15 06:02:21;;;;;;;11.10;5.87;;;2.80;99.90;;;;;;4842437;29;20498;-63
2023/03/15 06:05:08;;;;;;;13.20;5.77;;;2.90;99.90;;;;;;4856738;29;20505;-63
2023/03/15 06:07:36;;;;;;;9.67;5.20;;;2.60;99.90;;;;;;4823941;29;20522;-63
2023/03/15 06:10:06;;;;;;;11.67;5.50;;;2.30;99.90;;;;;;4817925;29;20544;-63
2023/03/15 06:12:34;;;;;;;10.67;5.57;;;2.30;99.90;;;;;;4822804;29;20498;-63
2023/03/15 06:15:05;;;;;;;13.97;5.80;;;2.10;99.90;;;;;;4829843;29;20969;-63
2023/03/15 06:17:34;;;;;;;9.93;5.77;;;2.10;99.90;;;;;;4841031;29;20512;-63
2023/03/15 06:20:02;;;;;;;10.93;5.23;;;2.10;99.90;;;;;;4819049;29;20839;-63
2023/03/15 06:22:30;;;;;;;11.63;5.77;;;2.10;99.90;;;;;;4811640;29;20595;-63
2023/03/15 06:25:03;;;;;;;14.20;6.20;;;2.00;99.90;;;;;;4816947;29;20475;-63
2023/03/15 06:27:31;;;;;;;10.50;5.27;;;2.10;99.90;;;;;;4829392;29;20489;-63
2023/03/15 06:29:59;;;;;;;12.63;5.80;;;2.00;99.90;;;;;;4812770;29;20898;-63
2023/03/15 06:32:30;;;;;;;13.60;6.40;;;2.30;99.90;;;;;;4830477;29;20487;-63
2023/03/15 06:34:58;;;;;;;9.33;5.40;;;2.50;99.90;;;;;;4826781;29;20503;-63
2023/03/15 06:37:26;;;;;;;17.33;7.27;;;2.40;99.90;;;;;;4824264;29;20497;-63
2023/03/15 06:40:04;;;;;;;13.77;6.33;;;2.40;99.90;;;;;;4817517;29;20479;-62
2023/03/15 06:42:33;;;;;;;11.90;5.80;;;2.50;99.90;;;;;;4822761;29;20531;-63
2023/03/15 06:45:02;;;;;;;12.47;5.23;;;2.30;99.90;;;;;;4820025;29;21017;-62
2023/03/15 06:47:32;;;;;;;11.03;5.23;;;2.20;99.90;;;;;;4823941;29;20505;-61
2023/03/15 06:50:00;;;;;;;9.17;4.63;;;2.20;99.90;;;;;;4819388;29;20488;-63
2023/03/15 06:52:28;;;;;;;11.33;4.13;;;2.20;99.90;;;;;;4817723;29;20501;-63
2023/03/15 06:54:56;;;;;;;4.90;3.40;;;2.00;99.90;;;;;;4817672;29;20471;-62
2023/03/15 06:57:25;;;;;;;3.77;2.90;;;1.90;99.90;;;;;;4816219;29;20482;-62
2023/03/15 06:59:53;;;;;;;4.73;2.87;;;1.80;99.90;;;;;;4820431;29;20979;-63
2023/03/15 07:02:22;;;;;;;5.00;2.83;;;1.80;99.90;;;;;;4817392;29;20489;-63
2023/03/15 07:04:51;;;;;;;4.57;2.90;;;1.90;99.90;;;;;;4818024;29;20478;-62
2023/03/15 07:07:19;;;;;;;3.73;2.73;;;1.90;99.90;;;;;;4818749;29;20476;-60
2023/03/15 07:09:47;;;;;;;5.83;3.10;;;2.00;99.90;;;;;;4819217;29;20482;-62
2023/03/15 07:12:15;;;;;;;2.97;2.40;;;2.10;99.90;;;;;;4820081;29;20505;-63
2023/03/15 07:14:45;;;;;;;5.70;2.80;;;2.10;99.90;;;;;;4819253;29;21941;-63
2023/03/15 07:17:13;;;;;;;4.53;2.83;;;2.10;99.90;;;;;;4820897;29;20569;-62
2023/03/15 07:19:41;;;;;;;4.70;2.93;;;2.10;99.90;;;;;;4822688;29;20475;-63
2023/03/15 07:22:25;;;;;;;4.80;3.40;;;2.30;99.90;;;;;;4823233;29;20577;-64
2023/03/15 07:24:53;;;;;;;5.27;3.07;;;2.20;99.90;;;;;;4825533;29;20494;-63
2023/03/15 07:27:21;;;;;;;6.70;3.17;;;2.20;99.90;;;;;;4826434;29;20478;-62
2023/03/15 07:29:49;;;;;;;4.60;2.90;;;2.20;99.90;;;;;;4821741;29;20464;-62
2023/03/15 07:32:17;;;;;;;3.97;3.13;;;2.10;99.90;;;;;;4817751;29;20489;-61
2023/03/15 07:34:46;;;;;;;3.93;2.87;;;2.20;99.90;;;;;;4821033;29;21031;-63
2023/03/15 07:37:14;;;;;;;4.07;2.87;;;2.20;99.90;;;;;;4821502;29;20981;-62
2023/03/15 07:39:44;;;;;;;3.67;2.73;;;2.20;99.90;;;;;;4822205;29;20484;-63
2023/03/15 07:42:12;;;;;;;4.27;2.47;;;2.20;99.90;;;;;;4821141;29;20476;-62
2023/03/15 07:44:42;;;;;;;3.67;2.63;;;2.30;99.90;;;;;;4820801;29;20481;-63
2023/03/15 07:47:10;;;;;;;5.73;3.47;;;2.30;99.90;;;;;;4823186;29;20489;-61
2023/03/15 07:49:39;;;;;;;4.73;3.30;;;2.30;99.90;;;;;;4824525;29;20498;-61
2023/03/15 07:52:07;;;;;;;4.77;3.30;;;2.30;99.90;;;;;;4820940;29;20921;-62
2023/03/15 07:54:36;;;;;;;7.53;3.57;;;2.30;99.90;;;;;;4820596;29;20475;-62
2023/03/15 07:57:05;;;;;;;7.20;3.03;;;2.30;99.90;;;;;;4821556;29;20479;-62
2023/03/15 07:59:34;;;;;;;5.70;2.97;;;2.30;99.90;;;;;;4821936;29;20473;-62
2023/03/15 08:02:02;;;;;;;5.53;2.83;;;2.30;99.90;;;;;;4822129;29;20482;-62
2023/03/15 08:04:30;;;;;;;5.40;2.30;;;2.30;99.90;;;;;;4821814;29;20473;-62
2023/03/15 08:06:58;;;;;;;5.93;2.70;;;2.20;99.90;;;;;;4821530;29;20524;-62
2023/03/15 08:09:27;;;;;;;6.10;2.33;;;2.20;99.90;;;;;;4821413;29;20485;-62
2023/03/15 08:11:55;;;;;;;4.17;1.70;;;2.20;99.90;;;;;;4822482;29;20843;-61
2023/03/15 08:14:24;;;;;;;4.60;1.67;;;2.20;99.90;;;;;;4821968;29;21078;-62
2023/03/15 08:16:52;;;;;;;3.47;1.57;;;2.30;99.90;;;;;;4821684;29;20489;-62
2023/03/15 08:19:21;;;;;;;4.47;1.20;;;2.40;99.90;;;;;;4822982;29;20579;-62
2023/03/15 08:21:52;;;;;;;5.03;1.10;;;2.50;99.90;;;;;;4822234;29;20477;-63
2023/03/15 08:24:21;;;;;;;2.50;1.10;;;2.50;99.90;;;;;;4821710;29;20560;-61
2023/03/15 08:26:50;;;;;;;1.53;1.00;;;2.60;99.90;;;;;;4820160;29;20528;-62
2023/03/15 08:29:18;;;;;;;2.03;1.20;;;2.70;99.90;;;;;;4819778;29;20479;-63
2023/03/15 08:31:47;;;;;;;2.97;0.97;;;2.90;99.90;;;;;;4821304;29;20485;-63
2023/03/15 08:34:16;;;;;;;5.80;1.17;;;3.10;99.90;;;;;;4822020;29;20892;-63
2023/03/15 08:36:46;;;;;;;4.23;1.37;;;3.30;99.90;;;;;;4821680;29;20479;-62
2023/03/15 08:39:15;;;;;;;7.03;1.10;;;3.50;99.90;;;;;;4823196;29;21014;-63
2023/03/15 08:41:44;;;;;;;8.20;1.33;;;3.80;99.90;;;;;;4821185;29;21077;-63
2023/03/15 08:44:12;;;;;;;6.97;1.43;;;3.90;99.90;;;;;;4824325;29;20480;-63
2023/03/15 08:46:40;;;;;;;9.47;0.97;;;3.60;99.90;;;;;;4832776;29;20985;-63
2023/03/15 08:49:10;;;;;;;3.47;1.00;;;3.30;99.90;;;;;;4818717;29;20513;-63
2023/03/15 08:51:38;;;;;;;7.20;1.20;;;3.10;99.90;;;;;;4821113;29;20485;-63
2023/03/15 08:54:06;;;;;;;1.83;0.77;;;3.00;99.90;;;;;;4821184;29;20584;-63
2023/03/15 08:56:35;;;;;;;8.27;1.70;;;3.10;99.90;;;;;;4820875;29;20479;-62
2023/03/15 08:59:04;;;;;;;7.30;1.47;;;3.00;99.90;;;;;;4820879;29;20479;-61
2023/03/15 09:01:32;;;;;;;5.53;1.20;;;3.10;99.90;;;;;;4820835;29;20486;-63
2023/03/15 09:04:00;;;;;;;3.53;1.13;;;3.40;99.90;;;;;;4821769;29;21206;-62
2023/03/15 09:06:30;;;;;;;2.80;0.90;;;3.80;99.90;;;;;;4820391;29;20535;-63
2023/03/15 09:08:58;;;;;;;5.17;1.50;;;4.00;99.90;;;;;;4821497;29;20481;-63
2023/03/15 09:11:26;;;;;;;5.90;1.33;;;4.30;99.90;;;;;;4821673;29;20479;-63
2023/03/15 09:13:54;;;;;;;2.97;1.10;;;4.60;99.90;;;;;;4822265;29;20501;-63
2023/03/15 09:16:25;;;;;;;6.27;1.40;;;4.90;99.90;;;;;;4820990;29;20480;-63
2023/03/15 09:18:53;;;;;;;4.20;1.20;;;5.10;99.90;;;;;;4821596;29;20516;-63
2023/03/15 09:21:21;;;;;;;4.93;1.47;;;5.40;99.90;;;;;;4820705;29;21023;-64
2023/03/15 09:23:54;;;;;;;5.63;1.63;;;5.60;99.90;;;;;;4820648;29;20475;-63
2023/03/15 09:26:22;;;;;;;4.50;1.53;;;5.80;99.90;;;;;;4819982;29;20484;-63
2023/03/15 09:28:50;;;;;;;6.90;1.80;;;6.30;99.90;;;;;;4821063;29;20489;-63
2023/03/15 09:31:18;;;;;;;8.10;1.60;;;6.70;99.90;;;;;;4819494;29;20501;-64
2023/03/15 09:33:46;;;;;;;7.33;2.13;;;6.90;99.90;;;;;;4820341;29;20281;-65
2023/03/15 09:36:14;;;;;;;7.50;1.60;;;6.40;99.90;;;;;;4820648;29;20812;-64
2023/03/15 09:38:43;;;;;;;6.47;1.70;;;5.90;99.90;;;;;;4819939;29;20234;-64
2023/03/15 09:41:19;;;;;;;5.00;1.43;;;5.70;99.90;;;;;;4821130;29;20235;-64
2023/03/15 09:44:01;;;;;;;10.77;2.47;;;5.80;99.90;;;;;;4821148;29;20691;-64
2023/03/15 09:46:33;;;;;;;6.30;1.60;;;5.50;99.90;;;;;;4820808;29;20232;-64
2023/03/15 09:49:08;;;;;;;5.33;1.53;;;5.30;99.90;;;;;;4820740;29;20504;-63
2023/03/15 09:51:41;;;;;;;7.27;1.80;;;5.10;99.90;;;;;;4820472;29;20251;-63
2023/03/15 09:54:12;;;;;;;8.00;1.80;;;4.90;99.90;;;;;;4820506;29;20250;-64
2023/03/15 09:56:47;;;;;;;7.23;1.40;;;4.80;99.90;;;;;;4820145;29;20301;-61
2023/03/15 09:59:21;;;;;;;6.67;1.70;;;4.70;99.90;;;;;;4820498;29;20840;-64
2023/03/15 10:01:53;;;;;;;4.47;1.10;;;4.70;99.90;;;;;;4819968;29;20548;-64
2023/03/15 10:04:28;;;;;;;4.20;1.10;;;4.70;99.90;;;;;;4820599;29;20999;-63
2023/03/15 10:06:59;;;;;;;3.20;0.80;;;5.20;99.90;;;;;;4821632;29;20477;-64
2023/03/15 10:09:32;;;;;;;3.47;0.73;;;5.60;99.90;;;;;;4819491;29;20239;-64
2023/03/15 10:12:05;;;;;;;2.60;0.70;;;6.00;99.90;;;;;;4820928;29;20254;-64
2023/03/15 10:14:52;;;;;;;4.40;0.90;;;6.50;99.90;;;;;;4820729;29;20228;-64
2023/03/15 10:17:26;;;;;;;6.07;1.10;;;6.40;99.90;;;;;;4820375;29;20596;-64
2023/03/15 10:20:00;;;;;;;4.33;0.80;;;6.60;99.90;;;;;;4821200;29;20246;-64
2023/03/15 10:22:34;;;;;;;4.83;1.40;;;7.00;99.90;;;;;;4820446;29;20230;-63
2023/03/15 10:25:10;;;;;;;2.77;1.03;;;7.50;99.90;;;;;;4820005;29;20247;-64
2023/03/15 10:27:44;;;;;;;3.63;0.70;;;7.70;99.90;;;;;;4819484;29;20623;-64
2023/03/15 10:30:17;;;;;;;3.83;0.73;;;8.10;99.90;;;;;;4819666;29;20597;-64
2023/03/15 10:32:51;;;;;;;4.23;0.80;;;8.10;99.90;;;;;;4820130;29;20609;-64
2023/03/15 10:35:20;;;;;;;3.93;0.90;;;8.00;99.90;;;;;;4818731;29;20273;-61
2023/03/15 10:37:48;;;;;;;1.87;0.70;;;7.60;99.90;;;;;;4820943;29;20598;-62
2023/03/15 10:40:41;;;;;;;2.63;0.80;;;7.90;99.90;;;;;;4820125;29;20315;-65
2023/03/15 10:43:18;;;;;;;5.13;0.90;;;7.40;99.90;;;;;;4820928;29;20581;-63
2023/03/15 10:46:00;;;;;;;4.30;0.80;;;7.20;99.90;;;;;;4819598;29;20345;-63
2023/03/15 10:48:30;;;;;;;7.27;1.17;;;7.80;99.90;;;;;;4818972;29;20248;-63
2023/03/15 10:51:04;;;;;;;2.83;0.77;;;7.90;99.90;;;;;;4820419;29;20243;-64
2023/03/15 10:53:32;;;;;;;4.37;0.90;;;7.90;99.90;;;;;;4819915;29;20250;-63
2023/03/15 10:56:04;;;;;;;4.13;0.93;;;7.70;99.90;;;;;;4819975;29;20240;-64
2023/03/15 10:58:45;;;;;;;2.90;0.73;;;8.00;99.90;;;;;;4819706;29;20235;-64
2023/03/15 11:01:24;;;;;;;2.70;0.67;;;8.30;99.90;;;;;;4819406;29;20735;-64
2023/03/15 11:04:05;;;;;;;1.73;0.70;;;8.40;99.90;;;;;;4820018;29;20252;-63
2023/03/15 11:06:41;;;;;;;2.50;0.97;;;9.00;99.90;;;;;;4820088;29;20228;-64
2023/03/15 11:09:11;;;;;;;3.00;1.30;;;9.30;99.90;;;;;;4819525;29;20271;-64
2023/03/15 11:11:56;;;;;;;2.83;0.83;;;9.60;99.90;;;;;;4818736;29;20246;-64
2023/03/15 11:14:27;;;;;;;2.67;0.80;;;10.00;99.90;;;;;;4818971;29;20442;-64
2023/03/15 11:16:58;;;;;;;4.97;1.00;;;9.60;99.90;;;;;;4819656;29;20247;-64
2023/03/15 11:19:30;;;;;;;4.33;1.07;;;9.40;99.90;;;;;;4819467;29;20236;-64
2023/03/15 11:21:58;;;;;;;2.73;0.73;;;9.10;99.90;;;;;;4822495;29;20242;-64
2023/03/15 11:24:28;;;;;;;4.83;1.10;;;8.90;99.90;;;;;;4821007;29;20236;-63
2023/03/15 11:27:00;;;;;;;3.43;0.90;;;8.40;99.90;;;;;;4823336;29;20770;-63
2023/03/15 11:29:32;;;;;;;6.00;1.20;;;8.20;99.90;;;;;;4822942;29;20278;-64
2023/03/15 11:32:03;;;;;;;3.10;0.87;;;8.10;99.90;;;;;;4822349;29;20242;-59
2023/03/15 11:34:40;;;;;;;5.93;1.27;;;7.90;99.90;;;;;;4822866;29;20605;-59
2023/03/15 11:37:16;;;;;;;4.00;1.10;;;7.70;99.90;;;;;;4822045;29;20704;-58
2023/03/15 11:39:50;;;;;;;4.80;1.00;;;7.30;99.90;;;;;;4822309;29;20741;-59
2023/03/15 11:42:33;;;;;;;6.10;1.20;;;7.00;99.90;;;;;;4821884;29;20274;-58
2023/03/15 11:45:06;;;;;;;5.07;1.20;;;6.60;99.90;;;;;;4822635;29;20232;-59
2023/03/15 11:47:43;;;;;;;5.47;1.13;;;6.20;99.90;;;;;;4822480;29;20705;-59
2023/03/15 11:50:14;;;;;;;5.67;1.30;;;6.20;99.90;;;;;;4822030;29;20248;-58
2023/03/15 11:52:43;;;;;;;2.13;0.53;;;6.00;99.90;;;;;;4822109;29;20259;-59
2023/03/15 11:55:19;;;;;;;2.03;0.60;;;5.50;99.90;;;;;;4822352;29;20235;-60
2023/03/15 11:57:49;;;;;;;2.77;0.47;;;5.30;99.90;;;;;;4822943;29;20726;-58
2023/03/15 12:00:40;;;;;;;2.17;0.60;;;5.50;99.90;;;;;;4822058;29;20622;-59
2023/03/15 12:03:34;;;;;;;2.47;0.80;;;5.90;99.90;;;;;;4822492;29;20732;-59
2023/03/15 12:06:09;;;;;;;1.73;0.60;;;6.10;99.90;;;;;;4821241;29;20231;-59
2023/03/15 12:08:47;;;;;;;1.30;0.30;;;6.10;99.90;;;;;;4820839;29;20236;-58
2023/03/15 12:11:37;;;;;;;2.77;0.60;;;6.20;99.90;;;;;;4823487;29;20578;-59
2023/03/15 12:14:20;;;;;;;3.17;0.70;;;6.30;99.90;;;;;;4821469;29;20235;-59
2023/03/15 12:16:50;;;;;;;3.70;1.00;;;6.40;99.90;;;;;;4823513;29;20224;-59
2023/03/15 12:19:21;;;;;;;3.27;0.60;;;6.30;99.90;;;;;;4822421;29;20240;-59
2023/03/15 12:21:51;;;;;;;4.00;1.03;;;6.20;99.90;;;;;;4822552;29;20244;-59
2023/03/15 12:24:23;;;;;;;3.60;0.80;;;6.30;99.90;;;;;;4823954;29;20771;-59
2023/03/15 12:27:01;;;;;;;3.80;0.67;;;6.30;99.90;;;;;;4820821;29;20262;-58
2023/03/15 12:29:32;;;;;;;5.77;1.00;;;6.40;99.90;;;;;;4821881;29;20238;-58
2023/03/15 12:32:12;;;;;;;2.70;1.10;;;6.70;99.90;;;;;;4822555;29;20592;-59
2023/03/15 12:34:47;;;;;;;4.67;1.10;;;6.90;99.90;;;;;;4822175;29;20236;-60
2023/03/15 12:37:22;;;;;;;5.73;1.13;;;7.00;99.90;;;;;;4823714;29;20259;-59
2023/03/15 12:39:52;;;;;;;5.67;1.10;;;6.80;99.90;;;;;;4823248;29;20232;-60
2023/03/15 12:43:09;;;;;;;5.23;1.20;;;6.90;99.90;;;;;;4822832;29;20704;-59
2023/03/15 12:45:44;;;;;;;3.07;0.80;;;7.10;99.90;;;;;;4821184;29;20224;-59
2023/03/15 12:48:27;;;;;;;3.23;0.90;;;7.10;99.90;;;;;;4821397;29;20236;-60
2023/03/15 12:50:58;;;;;;;6.07;0.90;;;7.00;99.90;;;;;;4821274;29;20734;-59
2023/03/15 12:53:37;;;;;;;4.10;1.00;;;7.00;99.90;;;;;;4819049;29;20240;-59
2023/03/15 12:56:34;;;;;;;3.90;0.90;;;6.90;99.90;;;;;;4821851;29;20239;-60
2023/03/15 12:59:15;;;;;;;3.97;1.10;;;6.90;99.90;;;;;;4821783;29;20728;-59
2023/03/15 13:01:43;;;;;;;3.00;0.83;;;7.10;99.90;;;;;;4821315;29;20232;-59
2023/03/15 13:04:13;;;;;;;4.67;1.77;;;7.10;99.90;;;;;;4822241;29;20265;-59
2023/03/15 13:06:52;;;;;;;4.30;0.97;;;7.10;99.90;;;;;;4821950;29;20228;-59
2023/03/15 13:09:37;;;;;;;5.50;0.90;;;7.30;99.90;;;;;;4822665;29;20246;-59
2023/03/15 13:12:14;;;;;;;4.63;1.00;;;7.40;99.90;;;;;;4821752;29;20236;-60
2023/03/15 13:14:46;;;;;;;4.70;0.90;;;7.50;99.90;;;;;;4819895;29;20239;-60
2023/03/15 13:17:29;;;;;;;5.53;0.90;;;7.60;99.90;;;;;;4820829;29;20701;-60
2023/03/15 13:20:16;;;;;;;6.03;1.10;;;7.80;99.90;;;;;;4821182;29;20232;-60
2023/03/15 13:22:54;;;;;;;5.30;1.20;;;8.10;99.90;;;;;;4822397;29;20851;-59
2023/03/15 13:25:32;;;;;;;5.40;1.00;;;8.30;99.90;;;;;;4820773;29;20228;-60
2023/03/15 13:28:05;;;;;;;4.90;0.90;;;8.30;99.90;;;;;;4819867;29;20231;-59